Time;durP1;ratioP1;P1;durP2;ratioP2;P2;SDS_P1;SDS_P2;PMS_P1;PMS_P2;Temp;Humidity;BMP_temperature;BMP_pressure;BME280_temperature;BME280_humidity;BME280_pressure;Samples;Min_cycle;Max_cycle;Signal;HPM_P1;HPM_P2
2022/01/10 00:00:16;;;;;;;4.00;1.80;;;2.60;99.90;;;;;;5019345;28;20026;-82
2022/01/10 00:02:43;;;;;;;2.70;1.40;;;2.60;99.90;;;;;;4993931;28;20030;-81
2022/01/10 00:05:09;;;;;;;10.05;3.30;;;2.60;99.90;;;;;;4987352;28;20026;-82
2022/01/10 00:07:35;;;;;;;3.72;1.85;;;2.60;99.90;;;;;;4986527;28;20177;-82
2022/01/10 00:10:03;;;;;;;5.75;1.95;;;2.60;99.90;;;;;;4986802;28;20030;-84
2022/01/10 00:12:28;;;;;;;3.92;1.70;;;2.60;99.90;;;;;;5005277;28;20064;-82
2022/01/10 00:14:54;;;;;;;4.07;2.25;;;2.60;99.90;;;;;;5006502;28;20022;-82
2022/01/10 00:17:20;;;;;;;2.60;1.77;;;2.60;99.90;;;;;;5006119;28;20120;-80
2022/01/10 00:19:46;;;;;;;4.00;1.70;;;2.60;99.90;;;;;;5024235;28;20042;-82
2022/01/10 00:22:12;;;;;;;2.47;1.80;;;2.60;99.90;;;;;;5005772;28;20061;-82
2022/01/10 00:24:38;;;;;;;3.33;1.90;;;2.60;99.90;;;;;;5024041;28;20446;-82
2022/01/10 00:27:04;;;;;;;3.72;2.10;;;2.60;99.90;;;;;;5025085;28;20033;-82
2022/01/10 00:29:30;;;;;;;4.20;2.45;;;2.60;99.90;;;;;;5006842;28;20034;-82
2022/01/10 00:31:58;;;;;;;4.20;2.30;;;2.60;99.90;;;;;;5006924;28;20036;-83
2022/01/10 00:34:25;;;;;;;7.50;2.47;;;2.50;99.90;;;;;;5023177;28;20026;-82
2022/01/10 00:36:51;;;;;;;5.43;2.08;;;2.60;99.90;;;;;;5004840;28;20022;-82
2022/01/10 00:39:17;;;;;;;6.43;2.30;;;2.50;99.90;;;;;;5005599;28;20036;-82
2022/01/10 00:41:45;;;;;;;2.90;2.20;;;2.50;99.90;;;;;;5023340;28;20443;-82
2022/01/10 00:44:11;;;;;;;2.92;2.17;;;2.40;99.90;;;;;;5022388;28;20030;-82
2022/01/10 00:46:37;;;;;;;4.97;2.55;;;2.40;99.90;;;;;;5025764;28;20018;-81
2022/01/10 00:49:02;;;;;;;3.50;2.33;;;2.40;99.90;;;;;;5021231;28;20140;-82
2022/01/10 00:51:28;;;;;;;4.97;2.60;;;2.40;99.90;;;;;;5023077;28;20430;-82
2022/01/10 00:53:54;;;;;;;4.93;2.15;;;2.30;99.90;;;;;;5005702;28;20021;-82
2022/01/10 00:56:21;;;;;;;3.75;2.20;;;2.30;99.90;;;;;;5022902;28;20026;-82
2022/01/10 00:58:47;;;;;;;4.32;2.20;;;2.30;99.90;;;;;;5005316;28;20076;-82
2022/01/10 01:01:14;;;;;;;6.15;2.53;;;2.20;99.90;;;;;;5013887;28;20072;-81
2022/01/10 01:03:40;;;;;;;6.43;2.85;;;2.20;99.90;;;;;;5023817;28;20038;-82
2022/01/10 01:06:06;;;;;;;3.25;2.60;;;2.20;99.90;;;;;;5005792;28;20018;-83
2022/01/10 01:08:34;;;;;;;7.35;3.22;;;2.30;99.90;;;;;;5022472;28;20018;-83
2022/01/10 01:24:05;;;;;;;5.75;2.65;;;2.20;99.90;;;;;;5024320;28;20032;-82
2022/01/10 01:26:33;;;;;;;5.13;2.92;;;2.20;99.90;;;;;;5030258;28;20018;-82
2022/01/10 01:28:59;;;;;;;5.00;2.85;;;2.20;99.90;;;;;;5012916;28;20010;-81
2022/01/10 01:31:25;;;;;;;3.88;2.92;;;2.20;99.90;;;;;;5032772;28;20072;-82
2022/01/10 01:33:51;;;;;;;6.85;3.13;;;2.20;99.90;;;;;;5034747;28;20098;-82
2022/01/10 01:36:22;;;;;;;3.67;2.60;;;2.30;99.90;;;;;;5033076;28;20132;-81
2022/01/10 01:38:48;;;;;;;6.38;3.38;;;2.30;99.90;;;;;;5016543;28;20022;-81
2022/01/10 01:43:55;;;;;;;3.13;2.13;;;2.20;99.90;;;;;;5033509;28;20026;-81
2022/01/10 01:46:21;;;;;;;3.17;1.90;;;2.30;99.90;;;;;;5015382;28;20041;-81
2022/01/10 01:48:48;;;;;;;3.63;2.28;;;2.30;99.90;;;;;;5030332;28;20034;-81
2022/01/10 01:51:15;;;;;;;4.60;2.22;;;2.30;99.90;;;;;;5017441;28;20010;-82
2022/01/10 01:53:41;;;;;;;3.97;2.42;;;2.40;99.90;;;;;;5032409;28;20025;-83
2022/01/10 01:56:09;;;;;;;3.25;2.00;;;2.40;99.90;;;;;;5025566;28;20030;-82
2022/01/10 01:58:37;;;;;;;2.92;2.15;;;2.40;99.90;;;;;;5030676;28;20018;-83
2022/01/10 02:01:07;;;;;;;2.55;1.80;;;2.40;99.90;;;;;;5008705;28;20386;-82
2022/01/10 02:03:34;;;;;;;5.15;2.35;;;2.40;99.90;;;;;;5024920;28;20022;-82
2022/01/10 02:06:02;;;;;;;4.88;2.65;;;2.40;99.90;;;;;;5021279;28;20153;-82
2022/01/10 02:08:28;;;;;;;3.63;2.50;;;2.40;99.90;;;;;;5005589;28;20030;-82
2022/01/10 02:10:53;;;;;;;7.75;2.72;;;2.40;99.90;;;;;;5024329;28;20394;-83
2022/01/10 02:13:19;;;;;;;6.20;2.75;;;2.40;99.90;;;;;;5023595;28;20504;-82
2022/01/10 02:15:51;;;;;;;6.55;2.78;;;2.40;99.90;;;;;;5006899;28;20037;-81
2022/01/10 02:18:18;;;;;;;4.85;2.08;;;2.40;99.90;;;;;;5024845;28;20025;-83
2022/01/10 02:20:45;;;;;;;3.78;2.30;;;2.40;99.90;;;;;;5023099;28;20057;-83
2022/01/10 02:23:11;;;;;;;3.35;2.25;;;2.40;99.90;;;;;;5005150;28;20140;-83
2022/01/10 02:25:36;;;;;;;4.70;2.33;;;2.50;99.90;;;;;;5005711;28;20090;-83
2022/01/10 02:28:02;;;;;;;4.28;2.58;;;2.40;99.90;;;;;;5004971;28;20037;-83
2022/01/10 02:30:28;;;;;;;3.78;2.10;;;2.40;99.90;;;;;;5021567;28;20022;-84
2022/01/10 02:32:57;;;;;;;3.53;2.13;;;2.40;99.90;;;;;;5025749;28;20081;-83
2022/01/10 02:35:30;;;;;;;3.88;2.00;;;2.40;99.90;;;;;;5004610;28;20022;-83
2022/01/10 02:37:56;;;;;;;2.83;1.92;;;2.40;99.90;;;;;;5019649;28;20065;-83
2022/01/10 02:40:25;;;;;;;3.38;2.10;;;2.40;99.90;;;;;;5034913;28;20030;-81
2022/01/10 02:42:51;;;;;;;3.42;2.15;;;2.40;99.90;;;;;;5014455;28;20081;-83
2022/01/10 02:45:18;;;;;;;5.10;2.50;;;2.40;99.90;;;;;;5002543;28;20026;-83
2022/01/10 02:47:44;;;;;;;4.07;2.10;;;2.40;99.90;;;;;;5007598;28;20021;-82
2022/01/10 02:50:11;;;;;;;3.45;1.80;;;2.40;99.90;;;;;;5021507;28;20375;-82
2022/01/10 02:52:38;;;;;;;3.03;2.08;;;2.50;99.90;;;;;;5002676;28;20030;-83
2022/01/10 02:55:05;;;;;;;5.43;2.40;;;2.50;99.90;;;;;;5003231;28;20061;-83
2022/01/10 02:57:32;;;;;;;2.80;2.22;;;2.50;99.90;;;;;;5027635;28;20113;-82
2022/01/10 03:00:00;;;;;;;3.47;1.95;;;2.50;99.90;;;;;;5018510;28;20018;-83
2022/01/10 03:02:31;;;;;;;2.67;1.92;;;2.60;99.90;;;;;;5017911;28;20033;-80
2022/01/10 03:04:57;;;;;;;5.28;2.33;;;2.60;99.90;;;;;;5018574;28;20057;-82
2022/01/10 03:07:23;;;;;;;3.90;2.47;;;2.60;99.90;;;;;;5028284;28;20045;-83
2022/01/10 03:09:50;;;;;;;3.90;2.65;;;2.50;99.90;;;;;;5036850;28;20006;-81
2022/01/10 03:12:17;;;;;;;3.53;2.53;;;2.50;99.90;;;;;;5036782;28;20030;-83
2022/01/10 03:14:44;;;;;;;4.28;2.60;;;2.60;99.90;;;;;;5013966;28;20028;-82
2022/01/10 03:17:10;;;;;;;5.20;1.77;;;2.50;99.90;;;;;;5012981;28;20006;-83
2022/01/10 03:19:40;;;;;;;6.10;3.13;;;2.50;99.90;;;;;;5037327;28;20014;-82
2022/01/10 03:22:07;;;;;;;3.13;2.65;;;2.50;99.90;;;;;;5020555;28;20037;-82
2022/01/10 03:24:33;;;;;;;2.85;2.40;;;2.50;99.90;;;;;;5020217;28;20026;-82
2022/01/10 03:26:59;;;;;;;4.55;2.80;;;2.60;99.90;;;;;;5037510;28;20068;-81
2022/01/10 03:29:24;;;;;;;4.80;3.30;;;2.60;99.90;;;;;;5019323;28;20045;-81
2022/01/10 03:31:50;;;;;;;5.68;2.97;;;2.60;99.90;;;;;;5036982;28;20049;-82
2022/01/10 03:34:16;;;;;;;4.65;2.63;;;2.60;99.90;;;;;;5010213;28;20096;-83
2022/01/10 03:36:43;;;;;;;7.30;3.65;;;2.60;99.90;;;;;;5015060;28;20036;-82
2022/01/10 03:39:10;;;;;;;5.60;3.55;;;2.60;99.90;;;;;;5026668;28;20026;-82
2022/01/10 03:41:36;;;;;;;4.68;3.00;;;2.60;99.90;;;;;;5028037;28;20111;-83
2022/01/10 03:44:04;;;;;;;5.57;3.25;;;2.60;99.90;;;;;;5029964;28;20060;-83
2022/01/10 03:46:32;;;;;;;3.67;2.60;;;2.60;99.90;;;;;;5010285;28;20066;-83
2022/01/10 03:48:58;;;;;;;5.63;2.80;;;2.60;99.90;;;;;;5028948;28;20055;-83
2022/01/10 03:51:24;;;;;;;2.88;2.20;;;2.60;99.90;;;;;;5012000;28;20072;-83
2022/01/10 03:53:50;;;;;;;3.45;2.67;;;2.50;99.90;;;;;;5028671;28;20100;-83
2022/01/10 03:56:16;;;;;;;3.97;2.67;;;2.60;99.90;;;;;;5052232;22;20513;-82
2022/01/10 03:58:41;;;;;;;2.90;2.15;;;2.60;99.90;;;;;;5040457;28;20025;-82
2022/01/10 04:01:09;;;;;;;6.57;2.53;;;2.60;99.90;;;;;;5039807;28;20071;-82
2022/01/10 04:03:37;;;;;;;3.20;2.75;;;2.60;99.90;;;;;;5019635;28;20041;-82
2022/01/10 04:06:03;;;;;;;5.28;3.17;;;2.60;99.90;;;;;;5020282;28;20022;-82
2022/01/10 04:08:29;;;;;;;6.40;2.85;;;2.60;99.90;;;;;;5035490;28;20052;-81
2022/01/10 04:10:54;;;;;;;6.32;3.58;;;2.60;99.90;;;;;;5041801;28;20021;-81
2022/01/10 04:13:20;;;;;;;5.88;3.58;;;2.60;99.90;;;;;;5040187;28;20105;-82
2022/01/10 04:15:46;;;;;;;7.28;4.03;;;2.60;99.90;;;;;;5040811;28;20547;-82
2022/01/10 04:18:12;;;;;;;5.65;3.10;;;2.60;99.90;;;;;;5042136;28;20041;-82
2022/01/10 04:20:38;;;;;;;5.25;3.60;;;2.50;99.90;;;;;;5022048;28;20415;-81
2022/01/10 04:23:04;;;;;;;7.40;3.33;;;2.50;99.90;;;;;;5040335;28;20075;-82
2022/01/10 04:25:30;;;;;;;5.45;3.60;;;2.50;99.90;;;;;;5040209;28;20033;-82
2022/01/10 04:27:56;;;;;;;7.53;3.83;;;2.50;99.90;;;;;;5042032;28;20042;-81
2022/01/10 04:30:21;;;;;;;10.05;3.75;;;2.50;99.90;;;;;;5021907;28;20026;-82
2022/01/10 04:32:49;;;;;;;6.38;3.95;;;2.50;99.90;;;;;;5015608;28;20160;-80
2022/01/10 04:35:14;;;;;;;9.50;4.20;;;2.50;99.90;;;;;;5035810;28;20030;-81
2022/01/10 04:37:40;;;;;;;7.38;4.20;;;2.50;99.90;;;;;;5039549;28;20076;-81
2022/01/10 04:40:08;;;;;;;6.32;3.90;;;2.50;99.90;;;;;;5039181;28;20032;-79
2022/01/10 04:42:34;;;;;;;8.65;4.65;;;2.50;99.90;;;;;;5040967;28;20089;-81
2022/01/10 04:45:01;;;;;;;8.13;4.03;;;2.50;99.90;;;;;;5022315;28;20056;-81
2022/01/10 04:47:26;;;;;;;7.50;4.30;;;2.50;99.90;;;;;;5039754;28;20029;-82
2022/01/10 04:52:21;;;;;;;9.10;4.10;;;2.60;99.90;;;;;;5022901;28;20053;-79
2022/01/10 04:54:47;;;;;;;9.30;4.43;;;2.50;99.90;;;;;;5002685;28;20037;-80
2022/01/10 04:57:13;;;;;;;7.75;4.00;;;2.50;99.90;;;;;;5002838;28;20037;-80
2022/01/10 04:59:39;;;;;;;8.27;4.50;;;2.50;99.90;;;;;;5014911;28;20037;-82
2022/01/10 05:02:05;;;;;;;9.50;4.85;;;2.50;99.90;;;;;;5032616;28;20092;-81
2022/01/10 05:04:30;;;;;;;6.50;4.30;;;2.50;99.90;;;;;;5049534;28;20099;-82
2022/01/10 05:06:56;;;;;;;6.32;4.50;;;2.50;99.90;;;;;;5051679;28;20030;-81
2022/01/10 05:09:22;;;;;;;8.43;4.82;;;2.50;99.90;;;;;;5035398;28;20140;-83
2022/01/10 05:11:48;;;;;;;7.80;5.35;;;2.50;99.90;;;;;;5056247;28;20021;-82
2022/01/10 05:14:14;;;;;;;6.05;4.10;;;2.40;99.90;;;;;;5052574;28;20039;-82
2022/01/10 05:16:40;;;;;;;5.47;4.15;;;2.40;99.90;;;;;;5036168;28;20036;-82
2022/01/10 05:19:09;;;;;;;6.50;3.83;;;2.50;99.90;;;;;;5054512;28;20041;-82
2022/01/10 05:21:35;;;;;;;7.28;4.65;;;2.40;99.90;;;;;;5031827;28;20026;-81
2022/01/10 05:24:01;;;;;;;7.07;4.57;;;2.50;99.90;;;;;;5013721;28;20034;-81
2022/01/10 05:26:27;;;;;;;7.03;4.13;;;2.50;99.90;;;;;;5028154;28;20018;-82
2022/01/10 05:28:55;;;;;;;10.18;4.72;;;2.50;99.90;;;;;;5026023;28;20021;-80
2022/01/10 05:31:21;;;;;;;10.98;4.75;;;2.50;99.90;;;;;;5034452;28;20061;-81
2022/01/10 05:33:48;;;;;;;10.27;4.95;;;2.50;99.90;;;;;;5044522;28;20024;-81
2022/01/10 05:36:14;;;;;;;8.73;4.82;;;2.50;99.90;;;;;;5043723;28;20029;-81
2022/01/10 05:38:39;;;;;;;9.38;5.45;;;2.50;99.90;;;;;;5044289;28;20509;-82
2022/01/10 05:41:05;;;;;;;8.35;4.70;;;2.50;99.90;;;;;;5043814;28;20026;-81
2022/01/10 05:43:31;;;;;;;7.40;4.57;;;2.50;99.90;;;;;;5047396;28;20474;-84
2022/01/10 05:45:58;;;;;;;6.57;4.63;;;2.50;99.90;;;;;;5047600;28;20071;-82
2022/01/10 05:48:30;;;;;;;11.10;5.35;;;2.50;99.90;;;;;;5043045;28;20100;-82
2022/01/10 05:50:56;;;;;;;12.48;6.07;;;2.50;99.90;;;;;;5056579;28;20268;-82
2022/01/10 05:53:23;;;;;;;11.00;6.10;;;2.50;99.90;;;;;;5056404;28;20076;-82
2022/01/10 05:55:49;;;;;;;10.18;6.00;;;2.50;99.90;;;;;;5056207;28;20033;-82
2022/01/10 05:58:17;;;;;;;12.82;5.78;;;2.50;99.90;;;;;;5041620;28;20029;-82
2022/01/10 06:00:42;;;;;;;9.23;5.82;;;2.50;99.90;;;;;;5043710;28;20021;-83
2022/01/10 06:03:08;;;;;;;8.50;5.07;;;2.50;99.90;;;;;;5026816;28;20023;-82
2022/01/10 06:05:34;;;;;;;8.23;5.35;;;2.50;99.90;;;;;;5055046;28;20013;-81
2022/01/10 06:08:02;;;;;;;10.30;6.35;;;2.40;99.90;;;;;;5056076;28;20024;-82
2022/01/10 06:10:29;;;;;;;10.75;6.13;;;2.40;99.90;;;;;;5055262;28;20025;-80
2022/01/10 06:12:57;;;;;;;13.00;6.10;;;2.50;99.90;;;;;;5049117;28;20110;-81
2022/01/10 06:15:23;;;;;;;9.38;6.50;;;2.50;99.90;;;;;;5048903;28;20049;-81
2022/01/10 06:17:50;;;;;;;9.20;5.90;;;2.50;99.90;;;;;;5030661;28;20018;-80
2022/01/10 06:20:16;;;;;;;8.82;5.22;;;2.40;99.90;;;;;;5050370;28;20032;-80
2022/01/10 06:22:43;;;;;;;9.13;6.15;;;2.40;99.90;;;;;;5050173;28;20041;-80
2022/01/10 06:25:10;;;;;;;11.27;6.65;;;2.40;99.90;;;;;;5049953;28;20036;-80
2022/01/10 06:27:36;;;;;;;11.13;7.15;;;2.40;99.90;;;;;;5030984;28;20029;-81
2022/01/10 06:30:03;;;;;;;17.90;7.53;;;2.50;99.90;;;;;;5031271;28;20089;-80
2022/01/10 06:32:29;;;;;;;12.50;7.00;;;2.50;99.90;;;;;;5042490;28;20037;-80
2022/01/10 06:34:56;;;;;;;8.38;5.82;;;2.50;99.90;;;;;;5051865;28;20026;-80
2022/01/10 06:37:21;;;;;;;12.50;6.50;;;2.50;99.90;;;;;;5050680;28;20025;-80
2022/01/10 06:39:47;;;;;;;11.93;6.38;;;2.50;99.90;;;;;;5050662;28;20024;-81
2022/01/10 06:42:13;;;;;;;9.65;6.25;;;2.50;99.90;;;;;;5050317;28;20033;-82
2022/01/10 06:44:39;;;;;;;10.10;5.80;;;2.40;99.90;;;;;;5050028;28;20090;-80
2022/01/10 06:47:05;;;;;;;13.25;7.63;;;2.50;99.90;;;;;;5034181;28;20033;-80
2022/01/10 06:49:31;;;;;;;10.82;6.70;;;2.50;99.90;;;;;;5052142;28;20535;-83
2022/01/10 06:51:56;;;;;;;11.38;6.70;;;2.50;99.90;;;;;;5053939;28;20045;-82
2022/01/10 06:54:22;;;;;;;10.40;6.35;;;2.50;99.90;;;;;;5053394;28;20040;-82
2022/01/10 06:56:49;;;;;;;12.63;7.10;;;2.50;99.90;;;;;;5035683;28;20474;-81
2022/01/10 06:59:15;;;;;;;12.30;7.78;;;2.50;99.90;;;;;;5049038;28;20093;-80
2022/01/10 07:01:40;;;;;;;10.50;6.43;;;2.40;99.90;;;;;;5028230;28;20041;-83
2022/01/10 07:04:06;;;;;;;11.45;7.03;;;2.40;99.90;;;;;;5037045;28;20041;-82
2022/01/10 07:06:32;;;;;;;12.23;6.63;;;2.30;99.90;;;;;;5046547;28;20018;-83
2022/01/10 07:08:58;;;;;;;13.10;6.75;;;2.30;99.90;;;;;;5048710;28;20105;-82
2022/01/10 07:11:24;;;;;;;13.20;8.00;;;2.20;99.90;;;;;;5051149;28;20021;-83
2022/01/10 07:13:50;;;;;;;12.68;6.75;;;2.30;99.90;;;;;;5053066;28;20056;-81
2022/01/10 07:16:16;;;;;;;18.50;8.43;;;2.30;99.90;;;;;;5033243;28;20025;-82
2022/01/10 07:18:42;;;;;;;13.68;7.82;;;2.30;99.90;;;;;;5051624;28;20474;-81
2022/01/10 07:21:07;;;;;;;14.10;8.50;;;2.30;99.90;;;;;;5050774;28;20099;-81
2022/01/10 07:23:33;;;;;;;12.30;8.15;;;2.40;99.90;;;;;;5051046;28;20029;-82
2022/01/10 07:25:59;;;;;;;12.57;8.13;;;2.40;99.90;;;;;;5033531;28;20056;-82
2022/01/10 07:28:24;;;;;;;15.02;8.10;;;2.40;99.90;;;;;;5033853;28;20029;-81
2022/01/10 07:30:51;;;;;;;16.77;8.68;;;2.40;99.90;;;;;;5028189;28;20033;-81
2022/01/10 07:33:17;;;;;;;10.95;8.38;;;2.40;99.90;;;;;;5032962;28;20030;-82
2022/01/10 07:35:43;;;;;;;15.57;7.95;;;2.50;99.90;;;;;;5019456;28;20094;-81
2022/01/10 07:38:09;;;;;;;14.52;7.88;;;2.50;99.90;;;;;;5033385;28;20021;-80
2022/01/10 07:40:34;;;;;;;17.13;7.85;;;2.50;99.90;;;;;;5053948;28;20049;-81
2022/01/10 07:43:00;;;;;;;12.25;7.13;;;2.50;99.90;;;;;;5035737;28;20017;-81
2022/01/10 07:45:26;;;;;;;11.93;7.15;;;2.50;99.90;;;;;;5032733;28;20029;-80
2022/01/10 07:47:52;;;;;;;17.45;9.20;;;2.50;99.90;;;;;;5056022;28;20041;-84
2022/01/10 07:50:18;;;;;;;21.05;9.13;;;2.50;99.90;;;;;;5050542;28;20060;-81
2022/01/10 07:52:44;;;;;;;17.80;8.98;;;2.50;99.90;;;;;;5032611;28;20021;-84
2022/01/10 07:55:10;;;;;;;18.23;8.90;;;2.50;99.90;;;;;;5033653;28;20022;-81
2022/01/10 07:57:36;;;;;;;14.70;9.30;;;2.40;99.90;;;;;;5052013;28;20140;-83
2022/01/10 08:00:04;;;;;;;19.75;9.07;;;2.40;99.90;;;;;;5042146;28;20022;-80
2022/01/10 08:02:30;;;;;;;14.70;8.13;;;2.40;99.90;;;;;;5033344;28;20028;-83
2022/01/10 08:04:56;;;;;;;17.65;9.02;;;2.40;99.90;;;;;;5033816;28;20034;-82
2022/01/10 08:07:22;;;;;;;15.00;8.23;;;2.40;99.90;;;;;;5033013;28;20091;-82
2022/01/10 08:09:48;;;;;;;14.82;8.15;;;2.40;99.90;;;;;;5052191;28;20049;-82
2022/01/10 08:12:14;;;;;;;13.45;8.35;;;2.40;99.90;;;;;;5050702;28;20029;-81
2022/01/10 08:14:41;;;;;;;17.73;8.73;;;2.40;99.90;;;;;;5050405;28;20034;-82
2022/01/10 08:17:07;;;;;;;14.27;9.13;;;2.40;99.90;;;;;;5034594;28;20045;-82
2022/01/10 08:19:34;;;;;;;16.83;8.73;;;2.50;99.90;;;;;;5030587;28;20022;-83
2022/01/10 08:22:01;;;;;;;16.52;9.23;;;2.50;99.90;;;;;;5013631;28;20026;-82
2022/01/10 08:24:28;;;;;;;18.90;8.52;;;2.60;99.90;;;;;;5014830;28;20074;-81
2022/01/10 08:26:54;;;;;;;16.67;8.77;;;2.60;99.90;;;;;;5027117;28;20029;-82
2022/01/10 08:29:21;;;;;;;17.75;9.88;;;2.60;99.90;;;;;;5049505;28;20034;-81
2022/01/10 08:31:47;;;;;;;17.55;8.90;;;2.60;99.90;;;;;;5039080;28;20034;-80
2022/01/10 08:34:13;;;;;;;17.20;9.63;;;2.70;99.90;;;;;;5030091;28;20100;-83
2022/01/10 08:36:39;;;;;;;20.17;10.10;;;2.70;99.90;;;;;;5037989;28;20432;-81
2022/01/10 08:39:07;;;;;;;16.27;10.13;;;2.70;99.90;;;;;;5032960;28;20033;-81
2022/01/10 08:41:34;;;;;;;22.77;9.77;;;2.70;99.90;;;;;;5050880;28;20018;-82
2022/01/10 08:44:00;;;;;;;16.27;9.30;;;2.80;99.90;;;;;;5051645;28;20017;-83
2022/01/10 08:46:26;;;;;;;18.77;10.57;;;2.80;99.90;;;;;;5050894;28;20045;-82
2022/01/10 08:48:52;;;;;;;20.13;9.95;;;2.70;99.90;;;;;;5031264;28;20026;-82
2022/01/10 08:51:18;;;;;;;15.38;10.00;;;2.70;99.90;;;;;;5033132;28;20021;-82
2022/01/10 08:53:44;;;;;;;17.33;9.95;;;2.70;99.90;;;;;;5050915;28;20044;-83
2022/01/10 08:56:10;;;;;;;19.58;9.95;;;2.70;99.90;;;;;;5041781;28;20052;-80
2022/01/10 08:58:35;;;;;;;20.55;10.38;;;2.80;99.90;;;;;;5045195;28;20026;-80
2022/01/10 09:01:06;;;;;;;21.33;11.10;;;2.80;99.90;;;;;;5045037;28;20037;-84
2022/01/10 09:03:33;;;;;;;20.05;10.77;;;2.90;99.90;;;;;;5023650;28;20049;-85
2022/01/10 09:05:59;;;;;;;20.65;10.23;;;2.90;99.90;;;;;;5042631;28;20028;-82
2022/01/10 09:08:29;;;;;;;15.88;9.93;;;2.90;99.90;;;;;;5029685;28;20033;-80
2022/01/10 09:10:56;;;;;;;21.88;11.15;;;2.90;99.90;;;;;;5036143;28;20021;-82
2022/01/10 09:13:22;;;;;;;23.85;12.13;;;3.00;99.90;;;;;;5046639;28;20021;-80
2022/01/10 09:15:48;;;;;;;22.52;10.63;;;3.00;99.90;;;;;;5048642;28;20029;-79
2022/01/10 09:18:14;;;;;;;17.75;11.05;;;3.00;99.90;;;;;;5045935;28;20009;-80
2022/01/10 09:20:41;;;;;;;19.92;10.52;;;3.10;99.90;;;;;;5043038;28;20018;-80
2022/01/10 09:23:07;;;;;;;16.27;9.40;;;3.20;99.90;;;;;;5053705;28;20017;-82
2022/01/10 09:25:33;;;;;;;12.65;7.90;;;3.10;99.90;;;;;;5043963;28;20026;-80
2022/01/10 09:27:59;;;;;;;20.33;11.02;;;3.20;99.90;;;;;;5043132;28;20024;-80
2022/01/10 09:30:25;;;;;;;20.83;10.27;;;3.10;99.90;;;;;;5043407;28;20048;-80
2022/01/10 09:32:53;;;;;;;21.25;10.93;;;3.10;99.90;;;;;;5019578;28;20333;-81
2022/01/10 09:35:19;;;;;;;16.92;10.25;;;3.00;99.90;;;;;;5045295;28;20026;-80
2022/01/10 09:37:45;;;;;;;16.27;9.18;;;2.90;99.90;;;;;;5038536;28;20020;-81
2022/01/10 09:40:11;;;;;;;19.10;9.82;;;2.90;99.90;;;;;;5041942;28;20022;-81
2022/01/10 09:42:38;;;;;;;19.13;8.75;;;2.90;99.90;;;;;;5052584;28;20053;-81
2022/01/10 09:45:06;;;;;;;16.08;8.63;;;2.90;99.90;;;;;;5029931;28;20017;-81
2022/01/10 09:47:33;;;;;;;15.13;9.00;;;2.90;99.90;;;;;;5018004;28;20022;-81
2022/01/10 09:49:59;;;;;;;15.93;8.98;;;2.90;99.90;;;;;;5040795;28;20026;-82
2022/01/10 09:52:26;;;;;;;17.33;9.30;;;2.90;99.90;;;;;;5028697;28;20097;-80
2022/01/10 09:54:53;;;;;;;16.13;9.70;;;2.90;99.90;;;;;;5042773;28;20192;-81
2022/01/10 09:57:20;;;;;;;15.63;8.93;;;2.80;99.90;;;;;;5071278;22;20038;-84
2022/01/10 09:59:47;;;;;;;13.60;9.05;;;2.80;99.90;;;;;;5048351;28;20381;-84
2022/01/10 10:02:17;;;;;;;19.65;9.48;;;2.90;99.90;;;;;;5052812;28;20461;-84
2022/01/10 10:04:43;;;;;;;13.20;9.20;;;3.00;99.90;;;;;;5038505;28;20056;-84
2022/01/10 10:07:10;;;;;;;13.63;7.68;;;3.20;99.90;;;;;;5032351;28;20030;-84
2022/01/10 10:09:36;;;;;;;9.75;6.43;;;3.40;99.90;;;;;;5003648;28;20033;-84
2022/01/10 10:12:04;;;;;;;9.95;6.47;;;3.70;99.90;;;;;;5019550;28;20022;-83
2022/01/10 10:14:29;;;;;;;10.30;6.68;;;3.90;99.90;;;;;;5001091;28;20026;-84
2022/01/10 10:16:57;;;;;;;12.73;7.18;;;4.10;99.90;;;;;;5050307;28;20056;-84
2022/01/10 10:19:29;;;;;;;12.25;7.25;;;4.30;99.90;;;;;;5044547;28;20026;-83
2022/01/10 10:21:56;;;;;;;11.85;8.02;;;4.50;99.70;;;;;;5037588;28;20089;-83
2022/01/10 10:24:23;;;;;;;15.15;7.78;;;4.60;99.00;;;;;;5023112;28;20029;-83
2022/01/10 10:26:50;;;;;;;14.30;8.13;;;4.70;98.20;;;;;;5035656;28;20097;-83
2022/01/10 10:29:17;;;;;;;12.80;6.78;;;4.70;97.50;;;;;;5023513;28;20374;-84
2022/01/10 10:31:47;;;;;;;16.42;8.77;;;4.70;97.80;;;;;;5035839;28;20033;-84
2022/01/10 10:34:28;;;;;;;13.25;8.18;;;4.70;96.50;;;;;;5027745;28;20025;-84
2022/01/10 10:37:03;;;;;;;13.50;8.38;;;4.60;97.10;;;;;;5034947;28;20093;-84
2022/01/10 10:39:30;;;;;;;13.13;7.82;;;4.50;96.80;;;;;;5022618;28;20021;-83
2022/01/10 10:42:00;;;;;;;15.25;9.43;;;4.30;97.20;;;;;;5037566;28;20018;-84
2022/01/10 10:44:26;;;;;;;15.43;8.85;;;4.20;97.40;;;;;;5040663;28;20028;-83
2022/01/10 10:46:52;;;;;;;17.70;9.77;;;3.90;97.90;;;;;;5036387;28;20033;-83
2022/01/10 10:49:20;;;;;;;17.02;10.18;;;3.80;98.80;;;;;;5041149;28;20025;-83
2022/01/10 10:51:50;;;;;;;16.70;9.02;;;3.60;99.20;;;;;;5014987;28;20101;-83
2022/01/10 10:54:17;;;;;;;15.65;8.88;;;3.60;99.80;;;;;;5025363;28;20029;-83
2022/01/10 10:56:44;;;;;;;19.58;9.18;;;3.60;99.60;;;;;;5041360;28;20498;-82
2022/01/10 10:59:13;;;;;;;18.35;7.53;;;3.50;99.40;;;;;;5030815;28;20048;-83
2022/01/10 11:01:41;;;;;;;16.90;10.70;;;3.40;99.80;;;;;;5030989;28;20026;-83
2022/01/10 11:04:11;;;;;;;17.90;10.07;;;3.40;99.70;;;;;;5035287;28;20025;-82
2022/01/10 11:06:39;;;;;;;18.77;11.23;;;3.40;99.90;;;;;;5022218;28;20109;-82
2022/01/10 11:09:09;;;;;;;19.42;10.13;;;3.40;99.90;;;;;;5024805;28;20006;-82
2022/01/10 11:11:35;;;;;;;18.77;10.38;;;3.40;99.90;;;;;;5014646;28;20025;-82
2022/01/10 11:14:03;;;;;;;16.95;10.43;;;3.30;99.90;;;;;;5023537;28;20033;-83
2022/01/10 11:16:29;;;;;;;19.70;10.50;;;3.20;99.90;;;;;;5007695;28;20734;-82
2022/01/10 11:18:55;;;;;;;17.40;11.57;;;3.20;99.90;;;;;;5040692;28;20021;-82
2022/01/10 11:21:23;;;;;;;18.00;10.68;;;3.20;99.90;;;;;;5035700;28;20025;-82
2022/01/10 11:23:50;;;;;;;23.17;11.73;;;3.20;99.90;;;;;;5014268;28;20038;-86
2022/01/10 11:26:17;;;;;;;18.13;10.18;;;3.20;99.90;;;;;;5019539;28;20034;-84
2022/01/10 11:28:56;;;;;;;19.77;10.45;;;3.10;99.90;;;;;;5024457;28;20522;-83
2022/01/10 11:31:28;;;;;;;17.13;10.68;;;3.10;99.90;;;;;;5034630;28;20049;-81
2022/01/10 11:33:57;;;;;;;21.35;11.80;;;3.00;99.90;;;;;;5032784;28;20074;-83
2022/01/10 11:36:25;;;;;;;17.90;9.90;;;3.00;99.90;;;;;;5015832;28;20022;-82
2022/01/10 11:38:59;;;;;;;17.30;9.63;;;3.00;99.90;;;;;;5039138;28;20498;-82
2022/01/10 11:41:30;;;;;;;16.63;9.82;;;3.10;99.90;;;;;;5040802;28;20030;-84
2022/01/10 11:44:11;;;;;;;16.10;9.50;;;3.20;99.90;;;;;;5042182;28;20040;-84
2022/01/10 11:46:42;;;;;;;15.27;9.23;;;3.30;99.90;;;;;;5036265;28;20060;-83
2022/01/10 11:49:13;;;;;;;15.98;8.57;;;3.40;99.90;;;;;;5033250;28;20014;-84
2022/01/10 11:52:01;;;;;;;13.18;8.00;;;3.50;99.90;;;;;;5026813;28;20033;-83
2022/01/10 11:54:30;;;;;;;11.55;7.50;;;3.60;99.90;;;;;;5029985;28;20512;-83
2022/01/10 11:57:00;;;;;;;14.43;7.53;;;3.50;99.90;;;;;;5031307;28;20445;-84
2022/01/10 12:00:03;;;;;;;15.80;8.10;;;3.50;99.90;;;;;;5026884;28;20494;-84
2022/01/10 12:02:29;;;;;;;13.30;8.20;;;3.50;99.90;;;;;;5027145;28;20018;-84
2022/01/10 12:04:58;;;;;;;13.35;7.53;;;3.50;99.90;;;;;;5030774;28;20017;-83
2022/01/10 12:07:24;;;;;;;17.83;8.45;;;3.50;99.90;;;;;;5035653;28;20108;-82
2022/01/10 12:09:51;;;;;;;10.48;7.60;;;3.50;99.20;;;;;;5045276;28;20098;-81
2022/01/10 12:12:19;;;;;;;14.60;8.82;;;3.50;99.50;;;;;;5045162;28;20034;-81
2022/01/10 12:14:47;;;;;;;16.77;7.93;;;3.40;99.80;;;;;;5039125;28;20014;-82
2022/01/10 12:17:13;;;;;;;14.82;8.50;;;3.40;99.90;;;;;;5040893;28;20022;-82
2022/01/10 12:19:39;;;;;;;14.63;8.07;;;3.40;99.90;;;;;;5044152;28;20029;-81
2022/01/10 12:22:06;;;;;;;14.65;8.32;;;3.30;99.90;;;;;;5038709;28;20052;-80
2022/01/10 12:24:37;;;;;;;14.70;8.85;;;3.30;99.90;;;;;;5037936;28;20034;-81
2022/01/10 12:27:04;;;;;;;11.13;6.95;;;3.30;99.90;;;;;;5046072;28;20069;-81
2022/01/10 12:29:34;;;;;;;13.82;8.35;;;3.30;99.90;;;;;;5044628;28;21020;-81
2022/01/10 12:32:00;;;;;;;13.88;7.80;;;3.20;99.90;;;;;;5039223;28;20021;-82
2022/01/10 12:34:26;;;;;;;11.35;8.13;;;3.20;99.90;;;;;;5035797;28;20030;-81
2022/01/10 12:36:52;;;;;;;13.63;8.13;;;3.40;99.90;;;;;;5019829;28;20033;-81
2022/01/10 12:39:28;;;;;;;10.93;6.85;;;3.40;99.90;;;;;;5041434;28;20017;-80
2022/01/10 12:41:57;;;;;;;10.93;7.68;;;3.40;99.90;;;;;;5043269;28;20041;-82
2022/01/10 12:44:24;;;;;;;15.65;8.95;;;3.50;99.90;;;;;;5035611;28;20088;-82
2022/01/10 12:46:51;;;;;;;21.00;10.40;;;3.50;99.90;;;;;;5028217;28;20105;-83
2022/01/10 12:49:18;;;;;;;17.48;10.45;;;3.60;99.90;;;;;;5024817;28;20030;-82
2022/01/10 12:51:52;;;;;;;12.27;8.00;;;3.70;99.30;;;;;;5043298;28;20037;-82
2022/01/10 12:54:21;;;;;;;16.02;9.85;;;3.60;99.80;;;;;;5026200;28;20083;-82
2022/01/10 12:56:48;;;;;;;18.60;10.00;;;3.60;99.90;;;;;;5037485;28;20022;-83
2022/01/10 12:59:15;;;;;;;18.35;11.38;;;3.60;99.90;;;;;;5032743;28;20033;-83
2022/01/10 13:01:42;;;;;;;14.27;9.93;;;3.70;99.90;;;;;;5030112;28;20088;-83
2022/01/10 13:04:08;;;;;;;18.52;10.48;;;3.80;99.90;;;;;;5018615;28;20516;-81
2022/01/10 13:06:38;;;;;;;18.33;8.98;;;3.90;99.80;;;;;;5035728;28;20068;-81